sensor_id;sensor_type;location;lat;lon;timestamp;temperature;humidity
44729;DHT22;30457;53.590;9.922;2023-06-26T00:00:40;27.60;43.10
44729;DHT22;30457;53.590;9.922;2023-06-26T00:05:06;27.50;43.00
44729;DHT22;30457;53.590;9.922;2023-06-26T00:09:32;27.50;43.40
44729;DHT22;30457;53.590;9.922;2023-06-26T00:13:58;27.40;43.70
44729;DHT22;30457;53.590;9.922;2023-06-26T00:18:25;27.40;43.60
44729;DHT22;30457;53.590;9.922;2023-06-26T00:22:51;27.30;43.70
44729;DHT22;30457;53.590;9.922;2023-06-26T00:27:16;27.30;43.90
44729;DHT22;30457;53.590;9.922;2023-06-26T00:31:43;27.20;44.00
44729;DHT22;30457;53.590;9.922;2023-06-26T00:36:09;27.10;43.90
44729;DHT22;30457;53.590;9.922;2023-06-26T00:40:36;27.10;44.30
44729;DHT22;30457;53.590;9.922;2023-06-26T00:45:02;27.00;44.10
44729;DHT22;30457;53.590;9.922;2023-06-26T00:49:29;26.90;44.20
44729;DHT22;30457;53.590;9.922;2023-06-26T00:53:56;26.90;44.20
44729;DHT22;30457;53.590;9.922;2023-06-26T00:58:24;26.80;44.60
44729;DHT22;30457;53.590;9.922;2023-06-26T01:02:49;26.80;45.30
44729;DHT22;30457;53.590;9.922;2023-06-26T01:07:16;26.70;44.70
44729;DHT22;30457;53.590;9.922;2023-06-26T01:11:44;26.60;45.20
44729;DHT22;30457;53.590;9.922;2023-06-26T01:16:10;26.60;44.50
44729;DHT22;30457;53.590;9.922;2023-06-26T01:20:37;26.50;44.80
44729;DHT22;30457;53.590;9.922;2023-06-26T01:29:36;26.40;45.40
44729;DHT22;30457;53.590;9.922;2023-06-26T01:34:02;26.40;45.20
44729;DHT22;30457;53.590;9.922;2023-06-26T01:38:28;26.30;45.10
44729;DHT22;30457;53.590;9.922;2023-06-26T01:42:57;26.30;45.40
44729;DHT22;30457;53.590;9.922;2023-06-26T01:47:27;26.20;45.40
44729;DHT22;30457;53.590;9.922;2023-06-26T01:56:33;26.20;46.00
44729;DHT22;30457;53.590;9.922;2023-06-26T02:01:01;26.10;45.70
44729;DHT22;30457;53.590;9.922;2023-06-26T02:05:26;26.10;45.70
44729;DHT22;30457;53.590;9.922;2023-06-26T02:09:52;26.10;45.70
44729;DHT22;30457;53.590;9.922;2023-06-26T02:14:18;26.00;46.00
44729;DHT22;30457;53.590;9.922;2023-06-26T02:18:43;26.00;45.90
44729;DHT22;30457;53.590;9.922;2023-06-26T02:23:09;26.00;46.20
44729;DHT22;30457;53.590;9.922;2023-06-26T02:27:35;25.90;46.20
44729;DHT22;30457;53.590;9.922;2023-06-26T02:32:00;25.90;46.30
44729;DHT22;30457;53.590;9.922;2023-06-26T02:36:26;25.80;46.30
44729;DHT22;30457;53.590;9.922;2023-06-26T02:40:51;25.80;46.20
44729;DHT22;30457;53.590;9.922;2023-06-26T02:45:17;25.70;46.20
44729;DHT22;30457;53.590;9.922;2023-06-26T02:49:43;25.70;46.40
44729;DHT22;30457;53.590;9.922;2023-06-26T02:54:08;25.70;46.80
44729;DHT22;30457;53.590;9.922;2023-06-26T02:58:34;25.60;46.60
44729;DHT22;30457;53.590;9.922;2023-06-26T03:02:59;25.60;46.90
44729;DHT22;30457;53.590;9.922;2023-06-26T03:07:26;25.50;47.00
44729;DHT22;30457;53.590;9.922;2023-06-26T03:11:51;25.50;47.00
44729;DHT22;30457;53.590;9.922;2023-06-26T03:16:20;25.50;47.20
44729;DHT22;30457;53.590;9.922;2023-06-26T03:20:46;25.40;47.40
44729;DHT22;30457;53.590;9.922;2023-06-26T03:25:14;25.40;47.40
44729;DHT22;30457;53.590;9.922;2023-06-26T03:29:39;25.40;47.30
44729;DHT22;30457;53.590;9.922;2023-06-26T03:34:05;25.40;47.60
44729;DHT22;30457;53.590;9.922;2023-06-26T03:38:31;25.30;47.50
44729;DHT22;30457;53.590;9.922;2023-06-26T03:42:58;25.30;47.60
44729;DHT22;30457;53.590;9.922;2023-06-26T03:47:24;25.30;47.70
44729;DHT22;30457;53.590;9.922;2023-06-26T03:51:50;25.30;47.80
44729;DHT22;30457;53.590;9.922;2023-06-26T03:56:15;25.30;47.80
44729;DHT22;30457;53.590;9.922;2023-06-26T04:00:42;25.30;47.80
44729;DHT22;30457;53.590;9.922;2023-06-26T04:05:07;25.30;47.70
44729;DHT22;30457;53.590;9.922;2023-06-26T04:09:33;25.40;47.80
44729;DHT22;30457;53.590;9.922;2023-06-26T04:13:59;25.40;47.70
44729;DHT22;30457;53.590;9.922;2023-06-26T04:18:25;25.40;47.80
44729;DHT22;30457;53.590;9.922;2023-06-26T04:22:51;25.50;47.90
44729;DHT22;30457;53.590;9.922;2023-06-26T04:27:17;25.50;48.00
44729;DHT22;30457;53.590;9.922;2023-06-26T04:31:42;25.50;47.90
44729;DHT22;30457;53.590;9.922;2023-06-26T04:36:11;25.60;47.80
44729;DHT22;30457;53.590;9.922;2023-06-26T04:40:37;25.70;48.00
44729;DHT22;30457;53.590;9.922;2023-06-26T04:45:03;25.80;47.80
44729;DHT22;30457;53.590;9.922;2023-06-26T04:49:28;25.90;47.80
44729;DHT22;30457;53.590;9.922;2023-06-26T04:53:55;26.00;47.70
44729;DHT22;30457;53.590;9.922;2023-06-26T04:58:20;26.10;47.60
44729;DHT22;30457;53.590;9.922;2023-06-26T05:02:46;26.20;47.50
44729;DHT22;30457;53.590;9.922;2023-06-26T05:07:12;26.30;47.40
44729;DHT22;30457;53.590;9.922;2023-06-26T05:11:37;26.40;47.40
44729;DHT22;30457;53.590;9.922;2023-06-26T05:16:03;26.50;47.20
44729;DHT22;30457;53.590;9.922;2023-06-26T05:20:29;26.60;47.10
44729;DHT22;30457;53.590;9.922;2023-06-26T05:24:55;26.70;47.00
44729;DHT22;30457;53.590;9.922;2023-06-26T05:29:21;26.80;46.80
44729;DHT22;30457;53.590;9.922;2023-06-26T05:33:48;26.90;46.80
44729;DHT22;30457;53.590;9.922;2023-06-26T05:38:14;27.00;46.80
44729;DHT22;30457;53.590;9.922;2023-06-26T05:42:40;27.20;46.70
44729;DHT22;30457;53.590;9.922;2023-06-26T05:47:06;27.30;46.50
44729;DHT22;30457;53.590;9.922;2023-06-26T05:51:32;27.40;46.30
44729;DHT22;30457;53.590;9.922;2023-06-26T05:55:58;27.60;46.40
44729;DHT22;30457;53.590;9.922;2023-06-26T06:00:24;27.70;46.10
44729;DHT22;30457;53.590;9.922;2023-06-26T06:04:50;27.90;46.10
44729;DHT22;30457;53.590;9.922;2023-06-26T06:09:16;28.00;45.70
44729;DHT22;30457;53.590;9.922;2023-06-26T06:13:41;28.20;45.60
44729;DHT22;30457;53.590;9.922;2023-06-26T06:18:08;28.30;45.50
44729;DHT22;30457;53.590;9.922;2023-06-26T06:22:33;28.50;45.20
44729;DHT22;30457;53.590;9.922;2023-06-26T06:26:59;28.60;45.10
44729;DHT22;30457;53.590;9.922;2023-06-26T06:31:24;28.80;45.10
44729;DHT22;30457;53.590;9.922;2023-06-26T06:35:50;29.00;45.10
44729;DHT22;30457;53.590;9.922;2023-06-26T06:40:16;29.10;44.70
44729;DHT22;30457;53.590;9.922;2023-06-26T06:44:41;29.30;44.50
44729;DHT22;30457;53.590;9.922;2023-06-26T06:49:08;29.50;44.50
44729;DHT22;30457;53.590;9.922;2023-06-26T06:53:34;29.70;44.00
44729;DHT22;30457;53.590;9.922;2023-06-26T06:57:59;29.80;43.40
44729;DHT22;30457;53.590;9.922;2023-06-26T07:02:25;30.00;42.80
44729;DHT22;30457;53.590;9.922;2023-06-26T07:06:50;30.00;42.70
44729;DHT22;30457;53.590;9.922;2023-06-26T07:11:16;30.20;43.00
44729;DHT22;30457;53.590;9.922;2023-06-26T07:15:41;30.30;42.70
44729;DHT22;30457;53.590;9.922;2023-06-26T07:20:08;30.50;43.00
44729;DHT22;30457;53.590;9.922;2023-06-26T07:24:35;30.70;43.00
44729;DHT22;30457;53.590;9.922;2023-06-26T07:29:01;30.80;42.20
44729;DHT22;30457;53.590;9.922;2023-06-26T07:33:26;31.00;42.30
44729;DHT22;30457;53.590;9.922;2023-06-26T07:37:52;31.20;42.20
44729;DHT22;30457;53.590;9.922;2023-06-26T07:42:17;31.40;41.80
44729;DHT22;30457;53.590;9.922;2023-06-26T07:46:43;31.50;42.00
44729;DHT22;30457;53.590;9.922;2023-06-26T07:51:10;31.70;41.10
44729;DHT22;30457;53.590;9.922;2023-06-26T07:55:35;31.90;41.20
44729;DHT22;30457;53.590;9.922;2023-06-26T08:00:01;32.10;41.00
44729;DHT22;30457;53.590;9.922;2023-06-26T08:04:28;32.30;40.80
44729;DHT22;30457;53.590;9.922;2023-06-26T08:08:55;32.50;39.50
44729;DHT22;30457;53.590;9.922;2023-06-26T08:13:20;32.60;38.60
44729;DHT22;30457;53.590;9.922;2023-06-26T08:17:46;32.70;38.50
44729;DHT22;30457;53.590;9.922;2023-06-26T08:22:12;32.90;38.20
44729;DHT22;30457;53.590;9.922;2023-06-26T08:26:38;33.00;37.70
44729;DHT22;30457;53.590;9.922;2023-06-26T08:31:04;33.10;37.80
44729;DHT22;30457;53.590;9.922;2023-06-26T08:35:29;33.20;37.60
44729;DHT22;30457;53.590;9.922;2023-06-26T08:39:55;33.30;37.30
44729;DHT22;30457;53.590;9.922;2023-06-26T08:44:20;33.50;36.70
44729;DHT22;30457;53.590;9.922;2023-06-26T08:48:55;33.50;36.30
44729;DHT22;30457;53.590;9.922;2023-06-26T08:53:35;33.50;35.80
44729;DHT22;30457;53.590;9.922;2023-06-26T08:58:02;33.50;36.30
44729;DHT22;30457;53.590;9.922;2023-06-26T09:02:28;33.50;36.60
44729;DHT22;30457;53.590;9.922;2023-06-26T09:06:53;33.40;36.60
44729;DHT22;30457;53.590;9.922;2023-06-26T09:11:19;33.50;37.40
44729;DHT22;30457;53.590;9.922;2023-06-26T09:15:45;33.50;37.10
44729;DHT22;30457;53.590;9.922;2023-06-26T09:20:11;33.60;36.80
44729;DHT22;30457;53.590;9.922;2023-06-26T09:24:37;33.80;36.80
44729;DHT22;30457;53.590;9.922;2023-06-26T09:29:04;33.80;36.40
44729;DHT22;30457;53.590;9.922;2023-06-26T09:33:34;33.80;36.20
44729;DHT22;30457;53.590;9.922;2023-06-26T09:38:01;33.70;35.80
44729;DHT22;30457;53.590;9.922;2023-06-26T09:42:27;33.50;35.50
44729;DHT22;30457;53.590;9.922;2023-06-26T09:46:55;33.20;35.90
44729;DHT22;30457;53.590;9.922;2023-06-26T09:51:22;32.90;36.20
44729;DHT22;30457;53.590;9.922;2023-06-26T09:55:48;32.70;36.70
44729;DHT22;30457;53.590;9.922;2023-06-26T10:00:14;32.40;37.00
44729;DHT22;30457;53.590;9.922;2023-06-26T10:04:40;32.10;37.30
44729;DHT22;30457;53.590;9.922;2023-06-26T10:09:06;31.90;37.70
44729;DHT22;30457;53.590;9.922;2023-06-26T10:13:41;31.70;38.00
44729;DHT22;30457;53.590;9.922;2023-06-26T10:18:08;31.50;38.50
44729;DHT22;30457;53.590;9.922;2023-06-26T10:22:40;31.20;39.60
44729;DHT22;30457;53.590;9.922;2023-06-26T10:31:37;30.40;40.40
44729;DHT22;30457;53.590;9.922;2023-06-26T10:36:17;29.90;40.90
44729;DHT22;30457;53.590;9.922;2023-06-26T10:40:46;29.50;42.50
44729;DHT22;30457;53.590;9.922;2023-06-26T10:45:16;29.10;42.60
44729;DHT22;30457;53.590;9.922;2023-06-26T10:49:46;28.80;43.90
44729;DHT22;30457;53.590;9.922;2023-06-26T10:54:15;28.60;44.50
44729;DHT22;30457;53.590;9.922;2023-06-26T10:58:41;28.40;44.90
44729;DHT22;30457;53.590;9.922;2023-06-26T11:03:23;28.30;46.00
44729;DHT22;30457;53.590;9.922;2023-06-26T11:08:09;28.30;47.70
44729;DHT22;30457;53.590;9.922;2023-06-26T11:12:42;28.40;46.50
44729;DHT22;30457;53.590;9.922;2023-06-26T11:17:08;28.40;46.40
44729;DHT22;30457;53.590;9.922;2023-06-26T11:21:38;28.50;46.20
44729;DHT22;30457;53.590;9.922;2023-06-26T11:26:17;28.60;45.60
44729;DHT22;30457;53.590;9.922;2023-06-26T11:30:43;28.60;45.30
44729;DHT22;30457;53.590;9.922;2023-06-26T11:35:09;28.70;45.00
44729;DHT22;30457;53.590;9.922;2023-06-26T11:39:35;28.70;44.80
44729;DHT22;30457;53.590;9.922;2023-06-26T11:44:03;28.70;43.90
44729;DHT22;30457;53.590;9.922;2023-06-26T11:48:29;28.70;43.70
44729;DHT22;30457;53.590;9.922;2023-06-26T11:52:56;28.60;43.40
44729;DHT22;30457;53.590;9.922;2023-06-26T11:57:22;28.60;43.20
44729;DHT22;30457;53.590;9.922;2023-06-26T12:01:49;28.50;43.10
44729;DHT22;30457;53.590;9.922;2023-06-26T12:06:15;28.50;43.80
44729;DHT22;30457;53.590;9.922;2023-06-26T12:10:41;28.50;44.80
44729;DHT22;30457;53.590;9.922;2023-06-26T12:15:08;28.50;43.80
44729;DHT22;30457;53.590;9.922;2023-06-26T12:19:44;28.50;44.10
44729;DHT22;30457;53.590;9.922;2023-06-26T12:24:14;28.70;44.40
44729;DHT22;30457;53.590;9.922;2023-06-26T12:28:40;28.80;43.70
44729;DHT22;30457;53.590;9.922;2023-06-26T12:33:13;29.00;44.00
44729;DHT22;30457;53.590;9.922;2023-06-26T12:37:39;29.20;43.90
44729;DHT22;30457;53.590;9.922;2023-06-26T12:42:06;29.40;43.30
44729;DHT22;30457;53.590;9.922;2023-06-26T12:46:35;29.70;41.90
44729;DHT22;30457;53.590;9.922;2023-06-26T12:51:10;29.90;39.90
44729;DHT22;30457;53.590;9.922;2023-06-26T12:55:36;30.00;38.00
44729;DHT22;30457;53.590;9.922;2023-06-26T13:00:02;30.10;38.00
44729;DHT22;30457;53.590;9.922;2023-06-26T13:04:28;30.10;38.10
44729;DHT22;30457;53.590;9.922;2023-06-26T13:08:54;30.10;37.90
44729;DHT22;30457;53.590;9.922;2023-06-26T13:13:20;30.20;37.40
44729;DHT22;30457;53.590;9.922;2023-06-26T13:17:45;30.20;37.80
44729;DHT22;30457;53.590;9.922;2023-06-26T13:22:11;30.30;37.60
44729;DHT22;30457;53.590;9.922;2023-06-26T13:26:36;30.30;38.30
44729;DHT22;30457;53.590;9.922;2023-06-26T13:31:03;30.40;37.00
44729;DHT22;30457;53.590;9.922;2023-06-26T13:35:28;30.40;36.50
44729;DHT22;30457;53.590;9.922;2023-06-26T13:39:54;30.30;36.40
44729;DHT22;30457;53.590;9.922;2023-06-26T13:44:19;30.20;36.00
44729;DHT22;30457;53.590;9.922;2023-06-26T13:48:45;30.20;36.50
44729;DHT22;30457;53.590;9.922;2023-06-26T13:53:12;30.10;36.70
44729;DHT22;30457;53.590;9.922;2023-06-26T13:57:37;30.10;36.00
44729;DHT22;30457;53.590;9.922;2023-06-26T14:02:07;30.10;35.50
44729;DHT22;30457;53.590;9.922;2023-06-26T14:06:33;30.10;36.00
44729;DHT22;30457;53.590;9.922;2023-06-26T14:11:00;30.10;35.80
44729;DHT22;30457;53.590;9.922;2023-06-26T14:15:26;30.10;36.00
44729;DHT22;30457;53.590;9.922;2023-06-26T14:19:55;30.10;35.20
44729;DHT22;30457;53.590;9.922;2023-06-26T14:24:20;30.00;35.00
44729;DHT22;30457;53.590;9.922;2023-06-26T14:28:46;29.90;35.20
44729;DHT22;30457;53.590;9.922;2023-06-26T14:33:12;29.90;36.00
44729;DHT22;30457;53.590;9.922;2023-06-26T14:37:37;29.90;36.00
44729;DHT22;30457;53.590;9.922;2023-06-26T14:42:05;30.10;35.20
44729;DHT22;30457;53.590;9.922;2023-06-26T14:46:30;30.30;34.40
44729;DHT22;30457;53.590;9.922;2023-06-26T14:50:56;30.30;33.50
44729;DHT22;30457;53.590;9.922;2023-06-26T14:55:22;30.30;32.90
44729;DHT22;30457;53.590;9.922;2023-06-26T14:59:47;30.20;33.10
44729;DHT22;30457;53.590;9.922;2023-06-26T15:04:13;30.10;33.10
44729;DHT22;30457;53.590;9.922;2023-06-26T15:08:38;30.00;33.80
44729;DHT22;30457;53.590;9.922;2023-06-26T15:13:04;29.90;34.40
44729;DHT22;30457;53.590;9.922;2023-06-26T15:17:30;29.80;35.00
44729;DHT22;30457;53.590;9.922;2023-06-26T15:21:56;29.80;35.50
44729;DHT22;30457;53.590;9.922;2023-06-26T15:26:21;29.90;34.80
44729;DHT22;30457;53.590;9.922;2023-06-26T15:30:47;30.00;34.40
44729;DHT22;30457;53.590;9.922;2023-06-26T15:35:13;30.00;33.90
44729;DHT22;30457;53.590;9.922;2023-06-26T15:39:38;30.10;32.90
44729;DHT22;30457;53.590;9.922;2023-06-26T15:44:04;30.00;33.00
44729;DHT22;30457;53.590;9.922;2023-06-26T15:48:30;29.80;32.20
44729;DHT22;30457;53.590;9.922;2023-06-26T15:52:56;29.70;32.50
44729;DHT22;30457;53.590;9.922;2023-06-26T15:57:22;29.50;32.90
44729;DHT22;30457;53.590;9.922;2023-06-26T16:01:48;29.30;33.40
44729;DHT22;30457;53.590;9.922;2023-06-26T16:06:14;29.10;34.10
44729;DHT22;30457;53.590;9.922;2023-06-26T16:10:39;29.10;34.10
44729;DHT22;30457;53.590;9.922;2023-06-26T16:15:05;29.00;33.90
44729;DHT22;30457;53.590;9.922;2023-06-26T16:19:31;28.90;34.00
44729;DHT22;30457;53.590;9.922;2023-06-26T16:23:57;28.80;34.50
44729;DHT22;30457;53.590;9.922;2023-06-26T16:28:23;28.80;34.60
44729;DHT22;30457;53.590;9.922;2023-06-26T16:32:49;28.70;35.10
44729;DHT22;30457;53.590;9.922;2023-06-26T16:37:15;28.60;35.10
44729;DHT22;30457;53.590;9.922;2023-06-26T16:41:40;28.60;34.30
44729;DHT22;30457;53.590;9.922;2023-06-26T16:46:06;28.50;34.60
44729;DHT22;30457;53.590;9.922;2023-06-26T16:50:32;28.40;35.40
44729;DHT22;30457;53.590;9.922;2023-06-26T16:54:58;28.20;35.60
44729;DHT22;30457;53.590;9.922;2023-06-26T16:59:23;28.10;36.00
44729;DHT22;30457;53.590;9.922;2023-06-26T17:03:50;28.00;36.10
44729;DHT22;30457;53.590;9.922;2023-06-26T17:08:17;27.90;36.00
44729;DHT22;30457;53.590;9.922;2023-06-26T17:12:42;27.90;36.40
44729;DHT22;30457;53.590;9.922;2023-06-26T17:17:08;27.80;36.70
44729;DHT22;30457;53.590;9.922;2023-06-26T17:21:35;27.70;36.80
44729;DHT22;30457;53.590;9.922;2023-06-26T17:26:02;27.60;37.20
44729;DHT22;30457;53.590;9.922;2023-06-26T17:30:28;27.60;37.60
44729;DHT22;30457;53.590;9.922;2023-06-26T17:34:53;27.50;37.50
44729;DHT22;30457;53.590;9.922;2023-06-26T17:39:19;27.50;37.20
44729;DHT22;30457;53.590;9.922;2023-06-26T17:43:45;27.40;37.10
44729;DHT22;30457;53.590;9.922;2023-06-26T17:48:10;27.20;37.10
44729;DHT22;30457;53.590;9.922;2023-06-26T17:52:36;27.10;37.10
44729;DHT22;30457;53.590;9.922;2023-06-26T17:57:02;27.00;37.00
44729;DHT22;30457;53.590;9.922;2023-06-26T18:01:27;26.80;36.60
44729;DHT22;30457;53.590;9.922;2023-06-26T18:05:53;26.70;36.90
44729;DHT22;30457;53.590;9.922;2023-06-26T18:10:18;26.60;37.30
44729;DHT22;30457;53.590;9.922;2023-06-26T18:14:44;26.50;37.30
44729;DHT22;30457;53.590;9.922;2023-06-26T18:19:10;26.40;37.20
44729;DHT22;30457;53.590;9.922;2023-06-26T18:23:35;26.30;37.10
44729;DHT22;30457;53.590;9.922;2023-06-26T18:28:01;26.20;37.10
44729;DHT22;30457;53.590;9.922;2023-06-26T18:32:26;26.10;37.10
44729;DHT22;30457;53.590;9.922;2023-06-26T18:36:53;26.00;37.60
44729;DHT22;30457;53.590;9.922;2023-06-26T18:41:19;26.00;37.90
44729;DHT22;30457;53.590;9.922;2023-06-26T18:45:44;26.00;38.00
44729;DHT22;30457;53.590;9.922;2023-06-26T18:50:10;25.90;38.00
44729;DHT22;30457;53.590;9.922;2023-06-26T18:54:35;25.90;38.30
44729;DHT22;30457;53.590;9.922;2023-06-26T18:59:01;25.70;38.30
44729;DHT22;30457;53.590;9.922;2023-06-26T19:03:26;25.60;38.50
44729;DHT22;30457;53.590;9.922;2023-06-26T19:07:52;25.50;38.60
44729;DHT22;30457;53.590;9.922;2023-06-26T19:12:18;25.40;38.80
44729;DHT22;30457;53.590;9.922;2023-06-26T19:16:44;25.20;39.10
44729;DHT22;30457;53.590;9.922;2023-06-26T19:21:09;25.10;39.40
44729;DHT22;30457;53.590;9.922;2023-06-26T19:25:35;25.00;39.70
44729;DHT22;30457;53.590;9.922;2023-06-26T19:30:02;24.90;39.90
44729;DHT22;30457;53.590;9.922;2023-06-26T19:34:28;24.80;40.30
44729;DHT22;30457;53.590;9.922;2023-06-26T19:38:53;24.70;40.50
44729;DHT22;30457;53.590;9.922;2023-06-26T19:43:19;24.60;40.80
44729;DHT22;30457;53.590;9.922;2023-06-26T19:47:45;24.60;41.10
44729;DHT22;30457;53.590;9.922;2023-06-26T19:52:10;24.50;41.00
44729;DHT22;30457;53.590;9.922;2023-06-26T19:56:36;24.50;41.20
44729;DHT22;30457;53.590;9.922;2023-06-26T20:01:01;24.40;41.30
44729;DHT22;30457;53.590;9.922;2023-06-26T20:05:27;24.30;41.50
44729;DHT22;30457;53.590;9.922;2023-06-26T20:09:53;24.20;40.60
44729;DHT22;30457;53.590;9.922;2023-06-26T20:14:18;24.10;40.70
44729;DHT22;30457;53.590;9.922;2023-06-26T20:18:44;24.00;41.00
44729;DHT22;30457;53.590;9.922;2023-06-26T20:23:09;23.90;41.80
44729;DHT22;30457;53.590;9.922;2023-06-26T20:27:35;23.80;41.40
44729;DHT22;30457;53.590;9.922;2023-06-26T20:32:01;23.70;41.20
44729;DHT22;30457;53.590;9.922;2023-06-26T20:36:27;23.60;40.90
44729;DHT22;30457;53.590;9.922;2023-06-26T20:40:53;23.50;41.20
44729;DHT22;30457;53.590;9.922;2023-06-26T20:45:19;23.50;41.40
44729;DHT22;30457;53.590;9.922;2023-06-26T20:49:45;23.30;41.70
44729;DHT22;30457;53.590;9.922;2023-06-26T20:54:11;23.30;42.40
44729;DHT22;30457;53.590;9.922;2023-06-26T20:58:37;23.20;42.70
44729;DHT22;30457;53.590;9.922;2023-06-26T21:03:03;23.10;43.50
44729;DHT22;30457;53.590;9.922;2023-06-26T21:07:28;23.10;43.60
44729;DHT22;30457;53.590;9.922;2023-06-26T21:11:54;23.00;43.90
44729;DHT22;30457;53.590;9.922;2023-06-26T21:16:19;23.00;44.00
44729;DHT22;30457;53.590;9.922;2023-06-26T21:20:47;23.00;44.00
44729;DHT22;30457;53.590;9.922;2023-06-26T21:25:13;22.90;44.10
44729;DHT22;30457;53.590;9.922;2023-06-26T21:29:38;22.80;44.20
44729;DHT22;30457;53.590;9.922;2023-06-26T21:34:04;22.80;44.40
44729;DHT22;30457;53.590;9.922;2023-06-26T21:38:30;22.70;44.60
44729;DHT22;30457;53.590;9.922;2023-06-26T21:42:55;22.70;44.60
44729;DHT22;30457;53.590;9.922;2023-06-26T21:47:21;22.70;44.50
44729;DHT22;30457;53.590;9.922;2023-06-26T21:51:46;22.60;44.50
44729;DHT22;30457;53.590;9.922;2023-06-26T21:56:12;22.50;44.50
44729;DHT22;30457;53.590;9.922;2023-06-26T22:00:38;22.50;44.60
44729;DHT22;30457;53.590;9.922;2023-06-26T22:05:04;22.40;44.60
44729;DHT22;30457;53.590;9.922;2023-06-26T22:09:30;22.30;44.70
44729;DHT22;30457;53.590;9.922;2023-06-26T22:13:55;22.30;44.80
44729;DHT22;30457;53.590;9.922;2023-06-26T22:18:21;22.30;44.80
44729;DHT22;30457;53.590;9.922;2023-06-26T22:22:46;22.20;44.80
44729;DHT22;30457;53.590;9.922;2023-06-26T22:27:12;22.10;44.90
44729;DHT22;30457;53.590;9.922;2023-06-26T22:31:38;22.00;44.90
44729;DHT22;30457;53.590;9.922;2023-06-26T22:36:04;22.00;45.00
44729;DHT22;30457;53.590;9.922;2023-06-26T22:40:29;21.90;45.10
44729;DHT22;30457;53.590;9.922;2023-06-26T22:44:55;21.90;45.20
44729;DHT22;30457;53.590;9.922;2023-06-26T22:49:21;21.80;45.20
44729;DHT22;30457;53.590;9.922;2023-06-26T22:53:46;21.80;45.30
44729;DHT22;30457;53.590;9.922;2023-06-26T22:58:12;21.70;45.40
44729;DHT22;30457;53.590;9.922;2023-06-26T23:02:38;21.60;45.50
44729;DHT22;30457;53.590;9.922;2023-06-26T23:07:04;21.60;45.60
44729;DHT22;30457;53.590;9.922;2023-06-26T23:11:29;21.60;45.90
44729;DHT22;30457;53.590;9.922;2023-06-26T23:15:55;21.50;45.70
44729;DHT22;30457;53.590;9.922;2023-06-26T23:20:20;21.50;45.80
44729;DHT22;30457;53.590;9.922;2023-06-26T23:24:47;21.40;45.90
44729;DHT22;30457;53.590;9.922;2023-06-26T23:29:12;21.40;46.10
44729;DHT22;30457;53.590;9.922;2023-06-26T23:33:38;21.40;46.10
44729;DHT22;30457;53.590;9.922;2023-06-26T23:38:07;21.30;46.20
44729;DHT22;30457;53.590;9.922;2023-06-26T23:42:32;21.30;46.30
44729;DHT22;30457;53.590;9.922;2023-06-26T23:46:58;21.20;46.30
44729;DHT22;30457;53.590;9.922;2023-06-26T23:51:26;21.20;46.80
44729;DHT22;30457;53.590;9.922;2023-06-26T23:55:52;21.20;46.60
